sensor_id;sensor_type;location;lat;lon;timestamp;P1;durP1;ratioP1;P2;durP2;ratioP2
48813;SDS011;34634;44.108;3.074;2023-02-23T00:00:08;53.40;;;32.50;;
48813;SDS011;34634;44.108;3.074;2023-02-23T00:02:51;61.10;;;33.55;;
48813;SDS011;34634;44.108;3.074;2023-02-23T00:05:20;54.97;;;32.97;;
48813;SDS011;34634;44.108;3.074;2023-02-23T00:07:47;51.45;;;30.70;;
48813;SDS011;34634;44.108;3.074;2023-02-23T00:10:13;52.20;;;28.50;;
48813;SDS011;34634;44.108;3.074;2023-02-23T00:12:40;49.08;;;27.90;;
48813;SDS011;34634;44.108;3.074;2023-02-23T00:15:07;50.80;;;26.63;;
48813;SDS011;34634;44.108;3.074;2023-02-23T00:17:34;56.13;;;26.58;;
48813;SDS011;34634;44.108;3.074;2023-02-23T00:20:05;53.10;;;25.40;;
48813;SDS011;34634;44.108;3.074;2023-02-23T00:22:32;50.47;;;24.27;;
48813;SDS011;34634;44.108;3.074;2023-02-23T00:24:59;51.70;;;23.83;;
48813;SDS011;34634;44.108;3.074;2023-02-23T00:27:25;45.95;;;24.05;;
48813;SDS011;34634;44.108;3.074;2023-02-23T00:29:52;49.88;;;26.58;;
48813;SDS011;34634;44.108;3.074;2023-02-23T00:32:18;52.80;;;29.17;;
48813;SDS011;34634;44.108;3.074;2023-02-23T00:34:45;55.90;;;28.02;;
48813;SDS011;34634;44.108;3.074;2023-02-23T00:37:14;51.47;;;29.13;;
48813;SDS011;34634;44.108;3.074;2023-02-23T00:39:40;56.65;;;30.50;;
48813;SDS011;34634;44.108;3.074;2023-02-23T00:42:06;48.60;;;27.10;;
48813;SDS011;34634;44.108;3.074;2023-02-23T00:44:33;42.67;;;26.17;;
48813;SDS011;34634;44.108;3.074;2023-02-23T00:46:59;45.35;;;25.85;;
48813;SDS011;34634;44.108;3.074;2023-02-23T00:49:26;45.70;;;24.70;;
48813;SDS011;34634;44.108;3.074;2023-02-23T00:51:52;43.80;;;23.73;;
48813;SDS011;34634;44.108;3.074;2023-02-23T00:54:19;48.03;;;25.95;;
48813;SDS011;34634;44.108;3.074;2023-02-23T00:56:46;42.72;;;25.48;;
48813;SDS011;34634;44.108;3.074;2023-02-23T00:59:12;41.33;;;25.10;;
48813;SDS011;34634;44.108;3.074;2023-02-23T01:01:39;41.70;;;23.58;;
48813;SDS011;34634;44.108;3.074;2023-02-23T01:04:06;43.03;;;23.63;;
48813;SDS011;34634;44.108;3.074;2023-02-23T01:06:32;42.70;;;25.27;;
48813;SDS011;34634;44.108;3.074;2023-02-23T01:09:04;48.75;;;23.90;;
48813;SDS011;34634;44.108;3.074;2023-02-23T01:11:31;43.13;;;23.33;;
48813;SDS011;34634;44.108;3.074;2023-02-23T01:13:58;40.90;;;23.65;;
48813;SDS011;34634;44.108;3.074;2023-02-23T01:16:26;41.00;;;23.73;;
48813;SDS011;34634;44.108;3.074;2023-02-23T01:18:54;39.63;;;21.55;;
48813;SDS011;34634;44.108;3.074;2023-02-23T01:23:51;42.47;;;21.95;;
48813;SDS011;34634;44.108;3.074;2023-02-23T01:26:27;38.63;;;21.75;;
48813;SDS011;34634;44.108;3.074;2023-02-23T01:28:55;37.00;;;21.02;;
48813;SDS011;34634;44.108;3.074;2023-02-23T01:31:22;35.22;;;21.05;;
48813;SDS011;34634;44.108;3.074;2023-02-23T01:34:06;43.53;;;22.20;;
48813;SDS011;34634;44.108;3.074;2023-02-23T01:36:36;37.28;;;20.17;;
48813;SDS011;34634;44.108;3.074;2023-02-23T01:39:04;41.47;;;21.30;;
48813;SDS011;34634;44.108;3.074;2023-02-23T01:41:32;40.80;;;22.35;;
48813;SDS011;34634;44.108;3.074;2023-02-23T01:46:41;42.58;;;23.00;;
48813;SDS011;34634;44.108;3.074;2023-02-23T01:49:09;42.72;;;24.13;;
48813;SDS011;34634;44.108;3.074;2023-02-23T01:51:40;39.58;;;22.88;;
48813;SDS011;34634;44.108;3.074;2023-02-23T01:54:17;43.22;;;23.05;;
48813;SDS011;34634;44.108;3.074;2023-02-23T01:56:45;42.17;;;24.48;;
48813;SDS011;34634;44.108;3.074;2023-02-23T01:59:13;45.33;;;24.33;;
48813;SDS011;34634;44.108;3.074;2023-02-23T02:01:41;46.03;;;23.67;;
48813;SDS011;34634;44.108;3.074;2023-02-23T02:04:10;47.25;;;23.63;;
48813;SDS011;34634;44.108;3.074;2023-02-23T02:06:41;41.60;;;24.02;;
48813;SDS011;34634;44.108;3.074;2023-02-23T02:09:09;39.65;;;23.75;;
48813;SDS011;34634;44.108;3.074;2023-02-23T02:11:40;42.80;;;23.13;;
48813;SDS011;34634;44.108;3.074;2023-02-23T02:14:09;40.58;;;23.52;;
48813;SDS011;34634;44.108;3.074;2023-02-23T02:32:05;43.03;;;24.58;;
48813;SDS011;34634;44.108;3.074;2023-02-23T02:45:41;44.35;;;23.42;;
48813;SDS011;34634;44.108;3.074;2023-02-23T02:48:14;36.70;;;19.98;;
48813;SDS011;34634;44.108;3.074;2023-02-23T02:53:17;29.35;;;15.50;;
48813;SDS011;34634;44.108;3.074;2023-02-23T02:55:45;32.53;;;15.80;;
48813;SDS011;34634;44.108;3.074;2023-02-23T02:58:12;26.27;;;13.80;;
48813;SDS011;34634;44.108;3.074;2023-02-23T03:00:41;25.38;;;14.00;;
48813;SDS011;34634;44.108;3.074;2023-02-23T03:03:44;24.63;;;14.25;;
48813;SDS011;34634;44.108;3.074;2023-02-23T03:06:32;27.52;;;14.98;;
48813;SDS011;34634;44.108;3.074;2023-02-23T03:21:04;27.35;;;13.05;;
48813;SDS011;34634;44.108;3.074;2023-02-23T03:24:12;25.10;;;11.93;;
48813;SDS011;34634;44.108;3.074;2023-02-23T03:27:08;24.35;;;13.38;;
48813;SDS011;34634;44.108;3.074;2023-02-23T03:32:46;21.42;;;12.32;;
48813;SDS011;34634;44.108;3.074;2023-02-23T03:35:49;25.50;;;12.15;;
48813;SDS011;34634;44.108;3.074;2023-02-23T03:38:37;21.45;;;11.55;;
48813;SDS011;34634;44.108;3.074;2023-02-23T03:41:25;34.05;;;12.40;;
48813;SDS011;34634;44.108;3.074;2023-02-23T03:44:14;24.65;;;11.00;;
48813;SDS011;34634;44.108;3.074;2023-02-23T03:47:02;22.95;;;10.85;;
48813;SDS011;34634;44.108;3.074;2023-02-23T03:49:49;25.23;;;12.55;;
48813;SDS011;34634;44.108;3.074;2023-02-23T03:52:42;24.60;;;11.85;;
48813;SDS011;34634;44.108;3.074;2023-02-23T03:55:31;24.50;;;11.18;;
48813;SDS011;34634;44.108;3.074;2023-02-23T03:58:18;18.05;;;9.13;;
48813;SDS011;34634;44.108;3.074;2023-02-23T04:01:06;17.65;;;8.68;;
48813;SDS011;34634;44.108;3.074;2023-02-23T04:03:52;16.88;;;8.48;;
48813;SDS011;34634;44.108;3.074;2023-02-23T04:06:42;22.40;;;8.82;;
48813;SDS011;34634;44.108;3.074;2023-02-23T04:09:28;17.92;;;8.68;;
48813;SDS011;34634;44.108;3.074;2023-02-23T04:17:30;20.83;;;9.52;;
48813;SDS011;34634;44.108;3.074;2023-02-23T04:19:57;24.75;;;9.55;;
48813;SDS011;34634;44.108;3.074;2023-02-23T04:22:23;26.23;;;10.65;;
48813;SDS011;34634;44.108;3.074;2023-02-23T04:24:50;21.25;;;10.38;;
48813;SDS011;34634;44.108;3.074;2023-02-23T04:27:16;25.85;;;9.65;;
48813;SDS011;34634;44.108;3.074;2023-02-23T04:29:43;23.25;;;9.88;;
48813;SDS011;34634;44.108;3.074;2023-02-23T04:32:13;19.15;;;10.00;;
48813;SDS011;34634;44.108;3.074;2023-02-23T04:37:06;24.20;;;9.07;;
48813;SDS011;34634;44.108;3.074;2023-02-23T04:39:33;19.85;;;9.60;;
48813;SDS011;34634;44.108;3.074;2023-02-23T04:41:59;24.63;;;9.43;;
48813;SDS011;34634;44.108;3.074;2023-02-23T04:44:25;27.85;;;14.80;;
48813;SDS011;34634;44.108;3.074;2023-02-23T04:46:52;29.75;;;14.27;;
48813;SDS011;34634;44.108;3.074;2023-02-23T04:49:18;23.40;;;11.48;;
48813;SDS011;34634;44.108;3.074;2023-02-23T04:51:44;25.42;;;10.38;;
48813;SDS011;34634;44.108;3.074;2023-02-23T04:54:11;23.13;;;9.05;;
48813;SDS011;34634;44.108;3.074;2023-02-23T04:56:38;21.48;;;9.45;;
48813;SDS011;34634;44.108;3.074;2023-02-23T04:59:04;19.25;;;8.93;;
48813;SDS011;34634;44.108;3.074;2023-02-23T05:01:30;20.30;;;9.63;;
48813;SDS011;34634;44.108;3.074;2023-02-23T05:03:57;23.52;;;9.27;;
48813;SDS011;34634;44.108;3.074;2023-02-23T05:06:24;21.65;;;8.77;;
48813;SDS011;34634;44.108;3.074;2023-02-23T05:08:51;20.35;;;9.00;;
48813;SDS011;34634;44.108;3.074;2023-02-23T05:11:17;22.55;;;9.93;;
48813;SDS011;34634;44.108;3.074;2023-02-23T05:13:44;21.95;;;9.55;;
48813;SDS011;34634;44.108;3.074;2023-02-23T05:16:10;23.00;;;10.30;;
48813;SDS011;34634;44.108;3.074;2023-02-23T05:18:36;21.17;;;9.68;;
48813;SDS011;34634;44.108;3.074;2023-02-23T05:21:03;18.98;;;9.88;;
48813;SDS011;34634;44.108;3.074;2023-02-23T05:23:31;25.27;;;9.45;;
48813;SDS011;34634;44.108;3.074;2023-02-23T05:26:02;24.48;;;10.38;;
48813;SDS011;34634;44.108;3.074;2023-02-23T05:28:30;20.90;;;10.10;;
48813;SDS011;34634;44.108;3.074;2023-02-23T05:30:56;20.90;;;10.55;;
48813;SDS011;34634;44.108;3.074;2023-02-23T05:33:22;22.58;;;11.73;;
48813;SDS011;34634;44.108;3.074;2023-02-23T05:35:49;33.55;;;14.32;;
48813;SDS011;34634;44.108;3.074;2023-02-23T05:38:15;22.92;;;11.50;;
48813;SDS011;34634;44.108;3.074;2023-02-23T05:40:41;30.52;;;15.15;;
48813;SDS011;34634;44.108;3.074;2023-02-23T05:43:08;28.52;;;14.25;;
48813;SDS011;34634;44.108;3.074;2023-02-23T05:45:38;27.00;;;14.23;;
48813;SDS011;34634;44.108;3.074;2023-02-23T05:48:05;32.67;;;15.13;;
48813;SDS011;34634;44.108;3.074;2023-02-23T05:50:31;44.50;;;21.40;;
48813;SDS011;34634;44.108;3.074;2023-02-23T05:52:58;19.83;;;11.30;;
48813;SDS011;34634;44.108;3.074;2023-02-23T05:55:24;23.23;;;11.52;;
48813;SDS011;34634;44.108;3.074;2023-02-23T05:57:51;22.58;;;11.07;;
48813;SDS011;34634;44.108;3.074;2023-02-23T06:00:17;19.40;;;11.30;;
48813;SDS011;34634;44.108;3.074;2023-02-23T06:02:44;20.67;;;10.23;;
48813;SDS011;34634;44.108;3.074;2023-02-23T06:05:10;21.45;;;10.13;;
48813;SDS011;34634;44.108;3.074;2023-02-23T06:07:38;22.25;;;10.75;;
48813;SDS011;34634;44.108;3.074;2023-02-23T06:10:04;26.05;;;11.40;;
48813;SDS011;34634;44.108;3.074;2023-02-23T06:12:31;22.33;;;10.73;;
48813;SDS011;34634;44.108;3.074;2023-02-23T06:14:57;28.58;;;10.10;;
48813;SDS011;34634;44.108;3.074;2023-02-23T06:17:24;20.75;;;9.98;;
48813;SDS011;34634;44.108;3.074;2023-02-23T06:19:50;22.80;;;10.02;;
48813;SDS011;34634;44.108;3.074;2023-02-23T06:22:16;20.98;;;10.13;;
48813;SDS011;34634;44.108;3.074;2023-02-23T06:24:43;21.05;;;10.32;;
48813;SDS011;34634;44.108;3.074;2023-02-23T06:27:09;27.10;;;9.98;;
48813;SDS011;34634;44.108;3.074;2023-02-23T06:29:36;16.10;;;8.48;;
48813;SDS011;34634;44.108;3.074;2023-02-23T06:32:03;20.35;;;8.55;;
48813;SDS011;34634;44.108;3.074;2023-02-23T06:34:29;20.63;;;8.63;;
48813;SDS011;34634;44.108;3.074;2023-02-23T06:36:56;20.33;;;8.45;;
48813;SDS011;34634;44.108;3.074;2023-02-23T06:39:22;19.17;;;8.57;;
48813;SDS011;34634;44.108;3.074;2023-02-23T06:41:48;24.38;;;9.15;;
48813;SDS011;34634;44.108;3.074;2023-02-23T06:44:15;15.88;;;9.15;;
48813;SDS011;34634;44.108;3.074;2023-02-23T06:46:41;23.13;;;10.82;;
48813;SDS011;34634;44.108;3.074;2023-02-23T06:49:08;23.60;;;10.45;;
48813;SDS011;34634;44.108;3.074;2023-02-23T06:51:35;24.70;;;11.18;;
48813;SDS011;34634;44.108;3.074;2023-02-23T06:54:02;32.58;;;12.27;;
48813;SDS011;34634;44.108;3.074;2023-02-23T06:56:28;26.65;;;11.45;;
48813;SDS011;34634;44.108;3.074;2023-02-23T06:58:54;19.63;;;10.30;;
48813;SDS011;34634;44.108;3.074;2023-02-23T07:01:21;21.15;;;10.90;;
48813;SDS011;34634;44.108;3.074;2023-02-23T07:03:47;24.38;;;10.10;;
48813;SDS011;34634;44.108;3.074;2023-02-23T07:06:13;20.60;;;10.02;;
48813;SDS011;34634;44.108;3.074;2023-02-23T07:08:40;21.38;;;10.00;;
48813;SDS011;34634;44.108;3.074;2023-02-23T07:11:07;18.27;;;9.50;;
48813;SDS011;34634;44.108;3.074;2023-02-23T07:13:33;29.05;;;12.52;;
48813;SDS011;34634;44.108;3.074;2023-02-23T07:16:00;20.38;;;10.02;;
48813;SDS011;34634;44.108;3.074;2023-02-23T07:18:27;19.55;;;10.32;;
48813;SDS011;34634;44.108;3.074;2023-02-23T07:20:53;25.25;;;11.27;;
48813;SDS011;34634;44.108;3.074;2023-02-23T07:23:19;20.90;;;7.88;;
48813;SDS011;34634;44.108;3.074;2023-02-23T07:25:48;18.10;;;7.80;;
48813;SDS011;34634;44.108;3.074;2023-02-23T07:28:15;17.88;;;7.05;;
48813;SDS011;34634;44.108;3.074;2023-02-23T07:30:41;15.95;;;6.25;;
48813;SDS011;34634;44.108;3.074;2023-02-23T07:33:07;16.52;;;6.90;;
48813;SDS011;34634;44.108;3.074;2023-02-23T07:35:34;20.80;;;7.65;;
48813;SDS011;34634;44.108;3.074;2023-02-23T07:38:00;26.85;;;8.50;;
48813;SDS011;34634;44.108;3.074;2023-02-23T07:40:27;22.33;;;6.93;;
48813;SDS011;34634;44.108;3.074;2023-02-23T07:42:53;18.23;;;7.50;;
48813;SDS011;34634;44.108;3.074;2023-02-23T07:45:19;16.23;;;6.82;;
48813;SDS011;34634;44.108;3.074;2023-02-23T07:47:47;13.93;;;6.18;;
48813;SDS011;34634;44.108;3.074;2023-02-23T07:50:13;17.13;;;6.72;;
48813;SDS011;34634;44.108;3.074;2023-02-23T07:52:40;13.27;;;6.32;;
48813;SDS011;34634;44.108;3.074;2023-02-23T07:55:07;17.80;;;10.48;;
48813;SDS011;34634;44.108;3.074;2023-02-23T07:57:33;17.85;;;7.07;;
48813;SDS011;34634;44.108;3.074;2023-02-23T08:00:00;17.10;;;6.85;;
48813;SDS011;34634;44.108;3.074;2023-02-23T08:02:27;18.73;;;9.43;;
48813;SDS011;34634;44.108;3.074;2023-02-23T08:04:53;17.58;;;8.38;;
48813;SDS011;34634;44.108;3.074;2023-02-23T08:07:20;18.35;;;8.32;;
48813;SDS011;34634;44.108;3.074;2023-02-23T08:09:46;18.98;;;9.68;;
48813;SDS011;34634;44.108;3.074;2023-02-23T08:12:14;28.02;;;9.95;;
48813;SDS011;34634;44.108;3.074;2023-02-23T08:14:40;23.95;;;9.70;;
48813;SDS011;34634;44.108;3.074;2023-02-23T08:17:07;17.65;;;8.35;;
48813;SDS011;34634;44.108;3.074;2023-02-23T08:19:34;21.17;;;7.78;;
48813;SDS011;34634;44.108;3.074;2023-02-23T08:22:01;20.63;;;8.68;;
48813;SDS011;34634;44.108;3.074;2023-02-23T08:24:28;15.68;;;8.90;;
48813;SDS011;34634;44.108;3.074;2023-02-23T08:26:57;17.67;;;9.63;;
48813;SDS011;34634;44.108;3.074;2023-02-23T08:29:24;17.40;;;8.65;;
48813;SDS011;34634;44.108;3.074;2023-02-23T08:31:50;27.27;;;11.02;;
48813;SDS011;34634;44.108;3.074;2023-02-23T08:34:17;24.75;;;10.88;;
48813;SDS011;34634;44.108;3.074;2023-02-23T08:36:44;20.63;;;10.65;;
48813;SDS011;34634;44.108;3.074;2023-02-23T08:39:11;22.73;;;10.52;;
48813;SDS011;34634;44.108;3.074;2023-02-23T08:41:38;25.70;;;11.88;;
48813;SDS011;34634;44.108;3.074;2023-02-23T08:44:04;28.65;;;12.25;;
48813;SDS011;34634;44.108;3.074;2023-02-23T08:46:30;19.35;;;9.13;;
48813;SDS011;34634;44.108;3.074;2023-02-23T08:48:56;21.83;;;7.07;;
48813;SDS011;34634;44.108;3.074;2023-02-23T08:51:23;16.70;;;7.32;;
48813;SDS011;34634;44.108;3.074;2023-02-23T08:53:49;12.40;;;6.95;;
48813;SDS011;34634;44.108;3.074;2023-02-23T08:56:16;17.20;;;7.32;;
48813;SDS011;34634;44.108;3.074;2023-02-23T08:58:42;15.50;;;8.05;;
48813;SDS011;34634;44.108;3.074;2023-02-23T09:01:16;15.10;;;8.20;;
48813;SDS011;34634;44.108;3.074;2023-02-23T09:03:43;20.15;;;8.45;;
48813;SDS011;34634;44.108;3.074;2023-02-23T09:06:11;15.23;;;8.05;;
48813;SDS011;34634;44.108;3.074;2023-02-23T09:08:38;11.70;;;7.18;;
48813;SDS011;34634;44.108;3.074;2023-02-23T09:11:04;15.23;;;7.63;;
48813;SDS011;34634;44.108;3.074;2023-02-23T09:13:31;18.48;;;7.03;;
48813;SDS011;34634;44.108;3.074;2023-02-23T09:15:57;13.43;;;7.50;;
48813;SDS011;34634;44.108;3.074;2023-02-23T09:18:23;18.65;;;6.93;;
48813;SDS011;34634;44.108;3.074;2023-02-23T09:20:53;13.68;;;7.28;;
48813;SDS011;34634;44.108;3.074;2023-02-23T09:23:20;11.88;;;7.00;;
48813;SDS011;34634;44.108;3.074;2023-02-23T09:25:47;17.42;;;6.72;;
48813;SDS011;34634;44.108;3.074;2023-02-23T09:28:14;16.38;;;7.43;;
48813;SDS011;34634;44.108;3.074;2023-02-23T09:30:41;17.38;;;7.38;;
48813;SDS011;34634;44.108;3.074;2023-02-23T09:33:08;14.35;;;7.57;;
48813;SDS011;34634;44.108;3.074;2023-02-23T09:35:35;14.07;;;6.55;;
48813;SDS011;34634;44.108;3.074;2023-02-23T09:38:02;11.02;;;5.85;;
48813;SDS011;34634;44.108;3.074;2023-02-23T09:40:30;10.05;;;5.78;;
48813;SDS011;34634;44.108;3.074;2023-02-23T09:48:15;9.77;;;5.40;;
48813;SDS011;34634;44.108;3.074;2023-02-23T09:50:44;8.70;;;5.25;;
48813;SDS011;34634;44.108;3.074;2023-02-23T09:55:41;13.38;;;5.15;;
48813;SDS011;34634;44.108;3.074;2023-02-23T09:58:15;9.70;;;5.13;;
48813;SDS011;34634;44.108;3.074;2023-02-23T10:00:43;10.18;;;4.45;;
48813;SDS011;34634;44.108;3.074;2023-02-23T10:03:15;9.95;;;4.50;;
48813;SDS011;34634;44.108;3.074;2023-02-23T10:05:44;10.65;;;4.57;;
48813;SDS011;34634;44.108;3.074;2023-02-23T10:08:18;8.15;;;4.55;;
48813;SDS011;34634;44.108;3.074;2023-02-23T10:10:50;10.00;;;4.75;;
48813;SDS011;34634;44.108;3.074;2023-02-23T10:21:05;9.20;;;4.75;;
48813;SDS011;34634;44.108;3.074;2023-02-23T10:23:38;9.00;;;4.38;;
48813;SDS011;34634;44.108;3.074;2023-02-23T10:26:06;10.75;;;4.53;;
48813;SDS011;34634;44.108;3.074;2023-02-23T10:28:34;17.10;;;4.55;;
48813;SDS011;34634;44.108;3.074;2023-02-23T10:31:01;10.00;;;4.65;;
48813;SDS011;34634;44.108;3.074;2023-02-23T10:33:31;10.93;;;4.72;;
48813;SDS011;34634;44.108;3.074;2023-02-23T10:36:12;8.70;;;4.07;;
48813;SDS011;34634;44.108;3.074;2023-02-23T10:38:40;6.95;;;3.60;;
48813;SDS011;34634;44.108;3.074;2023-02-23T10:41:06;8.18;;;3.72;;
48813;SDS011;34634;44.108;3.074;2023-02-23T10:43:34;4.70;;;3.03;;
48813;SDS011;34634;44.108;3.074;2023-02-23T10:46:00;8.93;;;4.18;;
48813;SDS011;34634;44.108;3.074;2023-02-23T10:48:31;10.65;;;4.88;;
48813;SDS011;34634;44.108;3.074;2023-02-23T10:50:58;9.40;;;4.90;;
48813;SDS011;34634;44.108;3.074;2023-02-23T10:53:34;16.77;;;4.13;;
48813;SDS011;34634;44.108;3.074;2023-02-23T10:58:30;8.25;;;4.43;;
48813;SDS011;34634;44.108;3.074;2023-02-23T11:01:04;10.75;;;4.38;;
48813;SDS011;34634;44.108;3.074;2023-02-23T11:05:57;8.32;;;4.90;;
48813;SDS011;34634;44.108;3.074;2023-02-23T11:08:34;7.55;;;4.78;;
48813;SDS011;34634;44.108;3.074;2023-02-23T11:11:05;11.35;;;4.35;;
48813;SDS011;34634;44.108;3.074;2023-02-23T11:13:39;11.43;;;4.65;;
48813;SDS011;34634;44.108;3.074;2023-02-23T11:18:46;8.43;;;4.30;;
48813;SDS011;34634;44.108;3.074;2023-02-23T11:21:17;9.48;;;4.47;;
48813;SDS011;34634;44.108;3.074;2023-02-23T11:23:47;6.53;;;4.20;;
48813;SDS011;34634;44.108;3.074;2023-02-23T11:26:23;10.07;;;4.82;;
48813;SDS011;34634;44.108;3.074;2023-02-23T11:28:54;11.93;;;5.32;;
48813;SDS011;34634;44.108;3.074;2023-02-23T11:31:22;12.50;;;5.00;;
48813;SDS011;34634;44.108;3.074;2023-02-23T11:33:53;17.52;;;7.05;;
48813;SDS011;34634;44.108;3.074;2023-02-23T11:38:59;16.52;;;7.30;;
48813;SDS011;34634;44.108;3.074;2023-02-23T11:41:26;14.43;;;7.07;;
48813;SDS011;34634;44.108;3.074;2023-02-23T11:43:57;14.13;;;5.90;;
48813;SDS011;34634;44.108;3.074;2023-02-23T11:46:24;16.02;;;6.57;;
48813;SDS011;34634;44.108;3.074;2023-02-23T11:48:52;10.70;;;6.82;;
48813;SDS011;34634;44.108;3.074;2023-02-23T11:51:23;14.43;;;6.85;;
48813;SDS011;34634;44.108;3.074;2023-02-23T11:53:51;15.45;;;6.18;;
48813;SDS011;34634;44.108;3.074;2023-02-23T11:56:21;15.80;;;6.35;;
48813;SDS011;34634;44.108;3.074;2023-02-23T11:58:57;16.88;;;6.95;;
48813;SDS011;34634;44.108;3.074;2023-02-23T12:04:00;12.82;;;6.35;;
48813;SDS011;34634;44.108;3.074;2023-02-23T12:06:33;14.57;;;5.85;;
48813;SDS011;34634;44.108;3.074;2023-02-23T12:09:46;10.75;;;6.13;;
48813;SDS011;34634;44.108;3.074;2023-02-23T12:11:52;7.57;;;4.35;;
48813;SDS011;34634;44.108;3.074;2023-02-23T12:15:03;9.48;;;4.82;;
48813;SDS011;34634;44.108;3.074;2023-02-23T12:17:33;6.85;;;3.80;;
48813;SDS011;34634;44.108;3.074;2023-02-23T12:20:02;6.07;;;3.17;;
48813;SDS011;34634;44.108;3.074;2023-02-23T12:22:33;5.40;;;2.65;;
48813;SDS011;34634;44.108;3.074;2023-02-23T12:25:02;4.65;;;2.70;;
48813;SDS011;34634;44.108;3.074;2023-02-23T12:27:39;11.60;;;4.07;;
48813;SDS011;34634;44.108;3.074;2023-02-23T12:32:55;11.70;;;5.03;;
48813;SDS011;34634;44.108;3.074;2023-02-23T12:35:26;10.23;;;5.22;;
48813;SDS011;34634;44.108;3.074;2023-02-23T12:40:21;9.48;;;5.45;;
48813;SDS011;34634;44.108;3.074;2023-02-23T12:45:39;6.28;;;4.40;;
48813;SDS011;34634;44.108;3.074;2023-02-23T12:48:11;11.48;;;4.35;;
48813;SDS011;34634;44.108;3.074;2023-02-23T12:50:40;6.38;;;3.70;;
48813;SDS011;34634;44.108;3.074;2023-02-23T12:55:49;7.07;;;3.65;;
48813;SDS011;34634;44.108;3.074;2023-02-23T12:58:34;4.75;;;2.97;;
48813;SDS011;34634;44.108;3.074;2023-02-23T13:01:05;5.82;;;3.08;;
48813;SDS011;34634;44.108;3.074;2023-02-23T13:03:45;14.80;;;5.00;;
48813;SDS011;34634;44.108;3.074;2023-02-23T13:08:48;11.35;;;3.92;;
48813;SDS011;34634;44.108;3.074;2023-02-23T13:16:25;3.65;;;2.00;;
48813;SDS011;34634;44.108;3.074;2023-02-23T13:19:09;8.70;;;2.42;;
48813;SDS011;34634;44.108;3.074;2023-02-23T13:22:00;2.50;;;1.85;;
48813;SDS011;34634;44.108;3.074;2023-02-23T13:24:31;4.72;;;1.90;;
48813;SDS011;34634;44.108;3.074;2023-02-23T13:27:00;3.92;;;1.95;;
48813;SDS011;34634;44.108;3.074;2023-02-23T13:29:38;4.45;;;2.15;;
48813;SDS011;34634;44.108;3.074;2023-02-23T13:32:12;6.72;;;2.47;;
48813;SDS011;34634;44.108;3.074;2023-02-23T13:35:22;7.13;;;3.45;;
48813;SDS011;34634;44.108;3.074;2023-02-23T13:37:30;7.05;;;3.45;;
48813;SDS011;34634;44.108;3.074;2023-02-23T13:40:07;6.38;;;2.50;;
48813;SDS011;34634;44.108;3.074;2023-02-23T13:42:44;5.97;;;1.98;;
48813;SDS011;34634;44.108;3.074;2023-02-23T13:50:49;1.42;;;1.33;;
48813;SDS011;34634;44.108;3.074;2023-02-23T13:56:05;4.47;;;1.60;;
48813;SDS011;34634;44.108;3.074;2023-02-23T13:58:32;5.28;;;1.70;;
48813;SDS011;34634;44.108;3.074;2023-02-23T14:01:10;3.50;;;1.70;;
48813;SDS011;34634;44.108;3.074;2023-02-23T14:03:44;3.65;;;1.40;;
48813;SDS011;34634;44.108;3.074;2023-02-23T14:06:12;5.88;;;1.23;;
48813;SDS011;34634;44.108;3.074;2023-02-23T14:08:39;2.75;;;1.10;;
48813;SDS011;34634;44.108;3.074;2023-02-23T14:11:07;3.50;;;1.77;;
48813;SDS011;34634;44.108;3.074;2023-02-23T14:13:34;5.95;;;2.13;;
48813;SDS011;34634;44.108;3.074;2023-02-23T14:16:14;8.05;;;2.45;;
48813;SDS011;34634;44.108;3.074;2023-02-23T14:24:21;12.52;;;3.55;;
48813;SDS011;34634;44.108;3.074;2023-02-23T14:29:28;13.95;;;4.28;;
48813;SDS011;34634;44.108;3.074;2023-02-23T14:34:48;14.02;;;4.35;;
48813;SDS011;34634;44.108;3.074;2023-02-23T14:37:22;15.75;;;4.93;;
48813;SDS011;34634;44.108;3.074;2023-02-23T14:39:50;13.23;;;4.40;;
48813;SDS011;34634;44.108;3.074;2023-02-23T14:42:20;9.45;;;3.97;;
48813;SDS011;34634;44.108;3.074;2023-02-23T14:44:47;7.40;;;3.90;;
48813;SDS011;34634;44.108;3.074;2023-02-23T14:47:22;12.93;;;4.25;;
48813;SDS011;34634;44.108;3.074;2023-02-23T14:49:55;7.85;;;4.30;;
48813;SDS011;34634;44.108;3.074;2023-02-23T14:54:51;11.35;;;3.67;;
48813;SDS011;34634;44.108;3.074;2023-02-23T14:57:29;7.70;;;2.58;;
48813;SDS011;34634;44.108;3.074;2023-02-23T15:02:22;5.50;;;2.55;;
48813;SDS011;34634;44.108;3.074;2023-02-23T15:04:49;3.90;;;1.90;;
48813;SDS011;34634;44.108;3.074;2023-02-23T15:07:20;5.53;;;2.38;;
48813;SDS011;34634;44.108;3.074;2023-02-23T15:09:52;6.03;;;2.03;;
48813;SDS011;34634;44.108;3.074;2023-02-23T15:12:20;9.30;;;2.20;;
48813;SDS011;34634;44.108;3.074;2023-02-23T15:14:51;4.30;;;1.70;;
48813;SDS011;34634;44.108;3.074;2023-02-23T15:17:18;3.05;;;1.52;;
48813;SDS011;34634;44.108;3.074;2023-02-23T15:19:46;10.35;;;1.60;;
48813;SDS011;34634;44.108;3.074;2023-02-23T15:22:24;3.72;;;2.00;;
48813;SDS011;34634;44.108;3.074;2023-02-23T15:24:54;3.60;;;1.80;;
48813;SDS011;34634;44.108;3.074;2023-02-23T15:27:22;4.05;;;1.70;;
48813;SDS011;34634;44.108;3.074;2023-02-23T15:29:51;9.27;;;1.90;;
48813;SDS011;34634;44.108;3.074;2023-02-23T15:32:20;6.97;;;2.90;;
48813;SDS011;34634;44.108;3.074;2023-02-23T15:34:50;7.57;;;2.38;;
48813;SDS011;34634;44.108;3.074;2023-02-23T15:39:48;11.07;;;3.92;;
48813;SDS011;34634;44.108;3.074;2023-02-23T15:42:19;11.93;;;4.30;;
48813;SDS011;34634;44.108;3.074;2023-02-23T15:44:52;14.63;;;4.72;;
48813;SDS011;34634;44.108;3.074;2023-02-23T15:47:20;13.50;;;4.30;;
48813;SDS011;34634;44.108;3.074;2023-02-23T15:50:01;11.20;;;5.05;;
48813;SDS011;34634;44.108;3.074;2023-02-23T15:52:29;12.15;;;4.90;;
48813;SDS011;34634;44.108;3.074;2023-02-23T15:55:04;11.40;;;4.72;;
48813;SDS011;34634;44.108;3.074;2023-02-23T15:57:33;14.65;;;5.32;;
48813;SDS011;34634;44.108;3.074;2023-02-23T16:00:01;11.50;;;4.55;;
48813;SDS011;34634;44.108;3.074;2023-02-23T16:02:31;12.40;;;4.13;;
48813;SDS011;34634;44.108;3.074;2023-02-23T16:05:06;9.98;;;4.32;;
48813;SDS011;34634;44.108;3.074;2023-02-23T16:07:38;8.85;;;4.68;;
48813;SDS011;34634;44.108;3.074;2023-02-23T16:12:43;12.93;;;5.38;;
48813;SDS011;34634;44.108;3.074;2023-02-23T16:17:47;12.50;;;4.20;;
48813;SDS011;34634;44.108;3.074;2023-02-23T16:20:19;14.40;;;4.07;;
48813;SDS011;34634;44.108;3.074;2023-02-23T16:22:47;9.45;;;4.05;;
48813;SDS011;34634;44.108;3.074;2023-02-23T16:25:19;9.27;;;3.92;;
48813;SDS011;34634;44.108;3.074;2023-02-23T16:27:55;8.32;;;3.33;;
48813;SDS011;34634;44.108;3.074;2023-02-23T16:35:38;7.38;;;3.03;;
48813;SDS011;34634;44.108;3.074;2023-02-23T16:38:11;4.78;;;2.90;;
48813;SDS011;34634;44.108;3.074;2023-02-23T16:40:38;5.45;;;2.42;;
48813;SDS011;34634;44.108;3.074;2023-02-23T16:43:04;9.57;;;2.63;;
48813;SDS011;34634;44.108;3.074;2023-02-23T16:45:30;6.47;;;2.50;;
48813;SDS011;34634;44.108;3.074;2023-02-23T16:47:57;5.47;;;2.53;;
48813;SDS011;34634;44.108;3.074;2023-02-23T16:50:29;9.82;;;3.38;;
48813;SDS011;34634;44.108;3.074;2023-02-23T16:52:57;9.70;;;3.30;;
48813;SDS011;34634;44.108;3.074;2023-02-23T16:55:25;10.35;;;3.63;;
48813;SDS011;34634;44.108;3.074;2023-02-23T16:57:56;15.38;;;3.75;;
48813;SDS011;34634;44.108;3.074;2023-02-23T17:00:31;9.30;;;3.60;;
48813;SDS011;34634;44.108;3.074;2023-02-23T17:02:57;10.43;;;4.13;;
48813;SDS011;34634;44.108;3.074;2023-02-23T17:05:25;11.07;;;4.20;;
48813;SDS011;34634;44.108;3.074;2023-02-23T17:07:52;9.90;;;4.53;;
48813;SDS011;34634;44.108;3.074;2023-02-23T17:12:55;12.27;;;2.72;;